Terminal Aerodrome Forecast
Issued by NWS Wichita, KS

Home | Current Version | Previous Version | Graphics & Text | Print | Product List | Glossary On
Versions: 1 2 3 4 5 6 7 8 9 10 11 12
899
FTUS43 KICT 202320
TAFICT
TAF
KICT 202320Z 2100/2124 16009KT P6SM SKC
     FM210700 18010KT P6SM SKC WS015/21035KT
     FM211300 19012KT P6SM SKC
     FM211700 20017G25KT P6SM FEW080=

USA.gov is the U.S. government's official web portal to all federal, state and local government web resources and services.